sensor_id;sensor_type;location;lat;lon;timestamp;pressure;altitude;pressure_sealevel;temperature;humidity
7966;BME280;4028;43.272;26.932;2023-09-30T00:00:12;99355.53;;;19.65;51.20
7966;BME280;4028;43.272;26.932;2023-09-30T00:02:38;99349.09;;;19.59;51.16
7966;BME280;4028;43.272;26.932;2023-09-30T00:05:04;99349.66;;;19.55;49.96
7966;BME280;4028;43.272;26.932;2023-09-30T00:07:29;99353.28;;;19.62;50.04
7966;BME280;4028;43.272;26.932;2023-09-30T00:09:55;99345.84;;;19.64;50.13
7966;BME280;4028;43.272;26.932;2023-09-30T00:12:20;99337.28;;;19.54;49.61
7966;BME280;4028;43.272;26.932;2023-09-30T00:14:46;99336.91;;;19.57;49.56
7966;BME280;4028;43.272;26.932;2023-09-30T00:17:14;99350.00;;;19.66;49.63
7966;BME280;4028;43.272;26.932;2023-09-30T00:19:40;99344.44;;;19.68;48.85
7966;BME280;4028;43.272;26.932;2023-09-30T00:22:05;99354.72;;;19.64;49.06
7966;BME280;4028;43.272;26.932;2023-09-30T00:24:31;99347.50;;;19.65;49.11
7966;BME280;4028;43.272;26.932;2023-09-30T00:26:56;99346.03;;;19.62;50.00
7966;BME280;4028;43.272;26.932;2023-09-30T00:29:22;99353.53;;;19.73;49.71
7966;BME280;4028;43.272;26.932;2023-09-30T00:31:47;99318.50;;;19.54;49.50
7966;BME280;4028;43.272;26.932;2023-09-30T00:34:13;99334.28;;;19.63;49.48
7966;BME280;4028;43.272;26.932;2023-09-30T00:36:38;99348.97;;;19.67;49.61
7966;BME280;4028;43.272;26.932;2023-09-30T00:39:04;99347.31;;;19.66;50.12
7966;BME280;4028;43.272;26.932;2023-09-30T00:41:29;99356.81;;;19.69;50.04
7966;BME280;4028;43.272;26.932;2023-09-30T00:43:55;99362.41;;;19.74;49.35
7966;BME280;4028;43.272;26.932;2023-09-30T00:48:49;99358.47;;;19.70;49.37
7966;BME280;4028;43.272;26.932;2023-09-30T00:51:15;99363.00;;;19.69;49.49
7966;BME280;4028;43.272;26.932;2023-09-30T00:53:41;99343.88;;;19.51;50.30
7966;BME280;4028;43.272;26.932;2023-09-30T00:56:07;99353.69;;;19.65;50.67
7966;BME280;4028;43.272;26.932;2023-09-30T00:58:34;99357.84;;;19.68;52.13
7966;BME280;4028;43.272;26.932;2023-09-30T01:01:01;99346.44;;;19.59;52.59
7966;BME280;4028;43.272;26.932;2023-09-30T01:03:26;99350.53;;;19.55;52.75
7966;BME280;4028;43.272;26.932;2023-09-30T01:05:53;99344.47;;;19.46;52.78
7966;BME280;4028;43.272;26.932;2023-09-30T01:08:19;99348.00;;;19.54;52.86
7966;BME280;4028;43.272;26.932;2023-09-30T01:10:45;99342.00;;;19.45;52.81
7966;BME280;4028;43.272;26.932;2023-09-30T01:13:11;99338.06;;;19.47;52.26
7966;BME280;4028;43.272;26.932;2023-09-30T01:15:36;99345.28;;;19.47;52.58
7966;BME280;4028;43.272;26.932;2023-09-30T01:18:03;99317.00;;;19.16;52.07
7966;BME280;4028;43.272;26.932;2023-09-30T01:20:28;99345.25;;;19.40;52.07
7966;BME280;4028;43.272;26.932;2023-09-30T01:22:56;99350.81;;;19.39;52.24
7966;BME280;4028;43.272;26.932;2023-09-30T01:25:22;99341.31;;;19.36;51.73
7966;BME280;4028;43.272;26.932;2023-09-30T01:27:49;99311.66;;;19.16;52.32
7966;BME280;4028;43.272;26.932;2023-09-30T01:30:16;99324.53;;;19.28;52.08
7966;BME280;4028;43.272;26.932;2023-09-30T01:32:43;99344.38;;;19.33;52.30
7966;BME280;4028;43.272;26.932;2023-09-30T01:35:09;99341.88;;;19.32;51.97
7966;BME280;4028;43.272;26.932;2023-09-30T01:37:35;99339.41;;;19.30;51.86
7966;BME280;4028;43.272;26.932;2023-09-30T01:40:01;99337.09;;;19.27;51.84
7966;BME280;4028;43.272;26.932;2023-09-30T01:42:28;99341.31;;;19.36;51.71
7966;BME280;4028;43.272;26.932;2023-09-30T01:44:54;99338.38;;;19.31;51.86
7966;BME280;4028;43.272;26.932;2023-09-30T01:47:19;99342.03;;;19.23;51.12
7966;BME280;4028;43.272;26.932;2023-09-30T01:49:45;99340.41;;;19.29;50.73
7966;BME280;4028;43.272;26.932;2023-09-30T01:52:10;99341.69;;;19.33;51.00
7966;BME280;4028;43.272;26.932;2023-09-30T01:54:36;99337.72;;;19.29;50.67
7966;BME280;4028;43.272;26.932;2023-09-30T01:57:02;99335.03;;;19.29;50.53
7966;BME280;4028;43.272;26.932;2023-09-30T01:59:28;99337.56;;;19.31;50.42
7966;BME280;4028;43.272;26.932;2023-09-30T02:01:54;99232.81;;;18.61;50.58
7966;BME280;4028;43.272;26.932;2023-09-30T02:04:19;99334.78;;;19.24;50.56
7966;BME280;4028;43.272;26.932;2023-09-30T02:06:44;99312.84;;;19.14;50.34
7966;BME280;4028;43.272;26.932;2023-09-30T02:09:10;99348.66;;;19.28;50.61
7966;BME280;4028;43.272;26.932;2023-09-30T02:11:36;99340.47;;;19.36;50.08
7966;BME280;4028;43.272;26.932;2023-09-30T02:14:03;99347.13;;;19.40;50.20
7966;BME280;4028;43.272;26.932;2023-09-30T02:16:28;99336.38;;;19.40;50.01
7966;BME280;4028;43.272;26.932;2023-09-30T02:18:55;99327.66;;;19.31;50.06
7966;BME280;4028;43.272;26.932;2023-09-30T02:21:20;99332.84;;;19.39;50.15
7966;BME280;4028;43.272;26.932;2023-09-30T02:23:47;99337.16;;;19.34;50.13
7966;BME280;4028;43.272;26.932;2023-09-30T02:26:20;99286.81;;;19.08;50.25
7966;BME280;4028;43.272;26.932;2023-09-30T02:28:47;99318.94;;;19.29;50.17
7966;BME280;4028;43.272;26.932;2023-09-30T02:31:12;99322.00;;;19.19;50.28
7966;BME280;4028;43.272;26.932;2023-09-30T02:33:38;99327.78;;;19.23;50.32
7966;BME280;4028;43.272;26.932;2023-09-30T02:36:08;99318.91;;;19.22;50.51
7966;BME280;4028;43.272;26.932;2023-09-30T02:38:34;99322.16;;;19.18;49.95
7966;BME280;4028;43.272;26.932;2023-09-30T02:41:01;99327.38;;;19.19;50.28
7966;BME280;4028;43.272;26.932;2023-09-30T02:43:28;99300.63;;;19.05;50.27
7966;BME280;4028;43.272;26.932;2023-09-30T02:45:53;99324.59;;;19.13;50.40
7966;BME280;4028;43.272;26.932;2023-09-30T02:48:19;99328.13;;;19.13;50.49
7966;BME280;4028;43.272;26.932;2023-09-30T02:50:44;99326.34;;;19.20;50.40
7966;BME280;4028;43.272;26.932;2023-09-30T02:53:13;99305.41;;;19.09;50.33
7966;BME280;4028;43.272;26.932;2023-09-30T02:55:40;99279.28;;;18.90;50.13
7966;BME280;4028;43.272;26.932;2023-09-30T02:58:07;99283.81;;;18.89;50.35
7966;BME280;4028;43.272;26.932;2023-09-30T03:00:33;99318.81;;;19.09;50.18
7966;BME280;4028;43.272;26.932;2023-09-30T03:03:00;99299.47;;;18.92;50.43
7966;BME280;4028;43.272;26.932;2023-09-30T03:05:29;99306.56;;;19.00;50.50
7966;BME280;4028;43.272;26.932;2023-09-30T03:07:59;99322.84;;;18.99;50.64
7966;BME280;4028;43.272;26.932;2023-09-30T03:10:25;99294.66;;;18.81;50.75
7966;BME280;4028;43.272;26.932;2023-09-30T03:12:57;99270.78;;;18.65;50.55
7966;BME280;4028;43.272;26.932;2023-09-30T03:15:29;99317.22;;;18.93;50.46
7966;BME280;4028;43.272;26.932;2023-09-30T03:17:58;99309.06;;;19.02;50.65
7966;BME280;4028;43.272;26.932;2023-09-30T03:20:25;99317.47;;;18.99;50.53
7966;BME280;4028;43.272;26.932;2023-09-30T03:22:50;99320.22;;;19.05;50.42
7966;BME280;4028;43.272;26.932;2023-09-30T03:25:18;99317.31;;;19.00;50.53
7966;BME280;4028;43.272;26.932;2023-09-30T03:27:47;99313.34;;;18.96;50.67
7966;BME280;4028;43.272;26.932;2023-09-30T03:30:14;99315.41;;;18.94;50.79
7966;BME280;4028;43.272;26.932;2023-09-30T03:32:40;99305.84;;;18.85;50.74
7966;BME280;4028;43.272;26.932;2023-09-30T03:35:08;99321.59;;;18.94;50.52
7966;BME280;4028;43.272;26.932;2023-09-30T03:37:38;99318.00;;;18.87;50.59
7966;BME280;4028;43.272;26.932;2023-09-30T03:40:05;99314.13;;;18.90;50.83
7966;BME280;4028;43.272;26.932;2023-09-30T03:42:40;99311.03;;;18.93;51.17
7966;BME280;4028;43.272;26.932;2023-09-30T03:45:08;99245.59;;;18.59;51.08
7966;BME280;4028;43.272;26.932;2023-09-30T03:47:35;99309.06;;;19.02;50.91
7966;BME280;4028;43.272;26.932;2023-09-30T03:50:01;99297.38;;;18.88;51.38
7966;BME280;4028;43.272;26.932;2023-09-30T03:52:28;99310.91;;;19.01;51.15
7966;BME280;4028;43.272;26.932;2023-09-30T03:54:54;99304.94;;;18.99;51.32
7966;BME280;4028;43.272;26.932;2023-09-30T03:57:19;99316.47;;;19.00;51.26
7966;BME280;4028;43.272;26.932;2023-09-30T03:59:45;99303.91;;;19.00;51.19
7966;BME280;4028;43.272;26.932;2023-09-30T04:02:14;99318.34;;;18.99;51.12
7966;BME280;4028;43.272;26.932;2023-09-30T04:04:40;99318.72;;;18.96;51.58
7966;BME280;4028;43.272;26.932;2023-09-30T04:07:05;99312.31;;;18.97;51.78
7966;BME280;4028;43.272;26.932;2023-09-30T04:09:34;99318.16;;;19.07;51.78
7966;BME280;4028;43.272;26.932;2023-09-30T04:11:59;99309.25;;;19.00;51.74
7966;BME280;4028;43.272;26.932;2023-09-30T04:14:26;99321.63;;;19.01;51.96
7966;BME280;4028;43.272;26.932;2023-09-30T04:16:51;99313.84;;;19.06;51.72
7966;BME280;4028;43.272;26.932;2023-09-30T04:19:19;99326.63;;;19.04;51.95
7966;BME280;4028;43.272;26.932;2023-09-30T04:21:45;99296.75;;;18.86;51.90
7966;BME280;4028;43.272;26.932;2023-09-30T04:24:10;99324.13;;;19.03;52.01
7966;BME280;4028;43.272;26.932;2023-09-30T04:26:36;99328.28;;;19.05;52.15
7966;BME280;4028;43.272;26.932;2023-09-30T04:29:02;99332.47;;;19.14;52.46
7966;BME280;4028;43.272;26.932;2023-09-30T04:31:37;99338.22;;;19.11;52.23
7966;BME280;4028;43.272;26.932;2023-09-30T04:34:03;99328.78;;;19.15;52.13
7966;BME280;4028;43.272;26.932;2023-09-30T04:36:30;99295.34;;;18.90;52.34
7966;BME280;4028;43.272;26.932;2023-09-30T04:38:56;99295.78;;;18.93;52.52
7966;BME280;4028;43.272;26.932;2023-09-30T04:41:21;99332.91;;;19.18;52.57
7966;BME280;4028;43.272;26.932;2023-09-30T04:43:47;99308.03;;;19.03;52.82
7966;BME280;4028;43.272;26.932;2023-09-30T04:46:13;99298.56;;;19.07;52.64
7966;BME280;4028;43.272;26.932;2023-09-30T04:48:39;99324.28;;;19.22;52.22
7966;BME280;4028;43.272;26.932;2023-09-30T04:51:08;99301.13;;;19.15;52.14
7966;BME280;4028;43.272;26.932;2023-09-30T04:53:34;99339.25;;;19.38;52.49
7966;BME280;4028;43.272;26.932;2023-09-30T04:55:59;99317.25;;;19.21;52.74
7966;BME280;4028;43.272;26.932;2023-09-30T04:58:26;99342.13;;;19.37;52.30
7966;BME280;4028;43.272;26.932;2023-09-30T05:00:52;99340.16;;;19.52;52.00
7966;BME280;4028;43.272;26.932;2023-09-30T05:03:17;99350.19;;;19.65;51.67
7966;BME280;4028;43.272;26.932;2023-09-30T05:05:44;99324.91;;;19.53;50.69
7966;BME280;4028;43.272;26.932;2023-09-30T05:08:09;99339.28;;;19.73;50.07
7966;BME280;4028;43.272;26.932;2023-09-30T05:10:36;99349.88;;;19.81;49.72
7966;BME280;4028;43.272;26.932;2023-09-30T05:13:02;99343.88;;;19.86;49.55
7966;BME280;4028;43.272;26.932;2023-09-30T05:15:28;99348.72;;;19.97;49.89
7966;BME280;4028;43.272;26.932;2023-09-30T05:17:57;99347.03;;;19.96;49.64
7966;BME280;4028;43.272;26.932;2023-09-30T05:20:22;99352.84;;;19.99;49.00
7966;BME280;4028;43.272;26.932;2023-09-30T05:22:49;99352.03;;;20.06;49.03
7966;BME280;4028;43.272;26.932;2023-09-30T05:25:16;99336.28;;;19.96;48.74
7966;BME280;4028;43.272;26.932;2023-09-30T05:27:43;99356.44;;;20.13;48.42
7966;BME280;4028;43.272;26.932;2023-09-30T05:30:09;99357.69;;;20.17;48.40
7966;BME280;4028;43.272;26.932;2023-09-30T05:32:36;99333.25;;;20.06;48.46
7966;BME280;4028;43.272;26.932;2023-09-30T05:35:05;99350.38;;;20.05;48.55
7966;BME280;4028;43.272;26.932;2023-09-30T05:37:31;99356.44;;;20.13;48.31
7966;BME280;4028;43.272;26.932;2023-09-30T05:39:56;99366.38;;;20.26;48.22
7966;BME280;4028;43.272;26.932;2023-09-30T05:42:22;99372.34;;;20.21;48.28
7966;BME280;4028;43.272;26.932;2023-09-30T05:44:47;99367.84;;;20.22;48.44
7966;BME280;4028;43.272;26.932;2023-09-30T05:47:14;99371.75;;;20.26;48.35
7966;BME280;4028;43.272;26.932;2023-09-30T05:49:40;99378.81;;;20.27;48.16
7966;BME280;4028;43.272;26.932;2023-09-30T05:52:06;99378.38;;;20.23;47.93
7966;BME280;4028;43.272;26.932;2023-09-30T05:54:32;99388.31;;;20.30;47.83
7966;BME280;4028;43.272;26.932;2023-09-30T05:56:57;99379.88;;;20.46;47.73
7966;BME280;4028;43.272;26.932;2023-09-30T05:59:23;99392.16;;;20.48;47.58
7966;BME280;4028;43.272;26.932;2023-09-30T06:01:51;99389.91;;;20.65;47.14
7966;BME280;4028;43.272;26.932;2023-09-30T06:04:16;99366.53;;;20.72;46.77
7966;BME280;4028;43.272;26.932;2023-09-30T06:06:42;99380.06;;;20.99;46.69
7966;BME280;4028;43.272;26.932;2023-09-30T06:09:08;99386.66;;;21.03;46.62
7966;BME280;4028;43.272;26.932;2023-09-30T06:11:34;99388.31;;;21.24;46.16
7966;BME280;4028;43.272;26.932;2023-09-30T06:14:01;99390.84;;;21.52;45.57
7966;BME280;4028;43.272;26.932;2023-09-30T06:16:27;99333.06;;;21.08;45.45
7966;BME280;4028;43.272;26.932;2023-09-30T06:18:53;99362.44;;;21.63;45.59
7966;BME280;4028;43.272;26.932;2023-09-30T06:21:24;99384.44;;;22.38;44.03
7966;BME280;4028;43.272;26.932;2023-09-30T06:23:54;99392.72;;;23.38;42.73
7966;BME280;4028;43.272;26.932;2023-09-30T06:26:20;99402.06;;;24.40;40.46
7966;BME280;4028;43.272;26.932;2023-09-30T06:28:50;99367.72;;;25.01;39.22
7966;BME280;4028;43.272;26.932;2023-09-30T06:31:18;99394.44;;;25.51;37.96
7966;BME280;4028;43.272;26.932;2023-09-30T06:33:44;99401.97;;;25.60;38.06
7966;BME280;4028;43.272;26.932;2023-09-30T06:36:11;99404.53;;;25.44;37.74
7966;BME280;4028;43.272;26.932;2023-09-30T06:38:37;99405.84;;;25.41;38.10
7966;BME280;4028;43.272;26.932;2023-09-30T06:41:06;99396.66;;;25.30;37.39
7966;BME280;4028;43.272;26.932;2023-09-30T06:43:32;99403.56;;;25.14;37.72
7966;BME280;4028;43.272;26.932;2023-09-30T06:45:58;99371.06;;;24.73;38.27
7966;BME280;4028;43.272;26.932;2023-09-30T06:48:25;99403.44;;;24.79;38.52
7966;BME280;4028;43.272;26.932;2023-09-30T06:50:51;99398.59;;;24.81;39.03
7966;BME280;4028;43.272;26.932;2023-09-30T06:53:18;99391.94;;;24.96;39.16
7966;BME280;4028;43.272;26.932;2023-09-30T06:55:44;99401.03;;;25.55;38.17
7966;BME280;4028;43.272;26.932;2023-09-30T06:58:10;99400.09;;;25.96;38.34
7966;BME280;4028;43.272;26.932;2023-09-30T07:00:40;99389.38;;;26.01;37.88
7966;BME280;4028;43.272;26.932;2023-09-30T07:03:07;99405.72;;;26.18;37.60
7966;BME280;4028;43.272;26.932;2023-09-30T07:05:35;99395.44;;;26.20;36.98
7966;BME280;4028;43.272;26.932;2023-09-30T07:08:01;99390.41;;;26.81;37.12
7966;BME280;4028;43.272;26.932;2023-09-30T07:10:27;99400.94;;;27.73;35.93
7966;BME280;4028;43.272;26.932;2023-09-30T07:12:55;99406.88;;;28.74;35.03
7966;BME280;4028;43.272;26.932;2023-09-30T07:15:20;99397.88;;;29.60;32.74
7966;BME280;4028;43.272;26.932;2023-09-30T07:17:46;99383.22;;;30.19;31.87
7966;BME280;4028;43.272;26.932;2023-09-30T07:20:13;99383.69;;;30.06;31.75
7966;BME280;4028;43.272;26.932;2023-09-30T07:22:39;99402.09;;;30.25;30.62
7966;BME280;4028;43.272;26.932;2023-09-30T07:25:05;99392.19;;;30.87;30.38
7966;BME280;4028;43.272;26.932;2023-09-30T07:27:31;99399.66;;;30.39;30.50
7966;BME280;4028;43.272;26.932;2023-09-30T07:29:57;99411.84;;;29.69;31.66
7966;BME280;4028;43.272;26.932;2023-09-30T07:32:22;99404.47;;;29.37;31.57
7966;BME280;4028;43.272;26.932;2023-09-30T07:34:49;99411.09;;;30.26;31.04
7966;BME280;4028;43.272;26.932;2023-09-30T07:37:15;99408.28;;;30.73;30.35
7966;BME280;4028;43.272;26.932;2023-09-30T07:39:42;99408.81;;;30.86;29.64
7966;BME280;4028;43.272;26.932;2023-09-30T07:42:11;99385.06;;;31.12;29.07
7966;BME280;4028;43.272;26.932;2023-09-30T07:44:37;99403.13;;;30.97;28.48
7966;BME280;4028;43.272;26.932;2023-09-30T07:47:05;99408.63;;;31.64;28.30
7966;BME280;4028;43.272;26.932;2023-09-30T07:49:34;99407.25;;;31.41;28.42
7966;BME280;4028;43.272;26.932;2023-09-30T07:52:00;99406.28;;;30.59;29.09
7966;BME280;4028;43.272;26.932;2023-09-30T07:54:25;99415.09;;;28.80;30.96
7966;BME280;4028;43.272;26.932;2023-09-30T07:56:51;99425.47;;;28.34;31.73
7966;BME280;4028;43.272;26.932;2023-09-30T07:59:17;99417.25;;;28.12;33.12
7966;BME280;4028;43.272;26.932;2023-09-30T08:01:43;99412.22;;;28.20;32.11
7966;BME280;4028;43.272;26.932;2023-09-30T08:04:08;99411.88;;;28.17;32.33
7966;BME280;4028;43.272;26.932;2023-09-30T08:06:34;99383.91;;;27.61;32.80
7966;BME280;4028;43.272;26.932;2023-09-30T08:08:59;99415.25;;;27.68;33.97
7966;BME280;4028;43.272;26.932;2023-09-30T08:11:25;99417.59;;;27.60;33.93
7966;BME280;4028;43.272;26.932;2023-09-30T08:13:53;99421.53;;;27.52;34.02
7966;BME280;4028;43.272;26.932;2023-09-30T08:16:19;99409.16;;;27.28;33.44
7966;BME280;4028;43.272;26.932;2023-09-30T08:18:45;99399.72;;;27.13;33.53
7966;BME280;4028;43.272;26.932;2023-09-30T08:21:11;99421.19;;;27.32;33.35
7966;BME280;4028;43.272;26.932;2023-09-30T08:23:36;99414.25;;;27.07;33.37
7966;BME280;4028;43.272;26.932;2023-09-30T08:26:04;99424.97;;;27.47;32.90
7966;BME280;4028;43.272;26.932;2023-09-30T08:28:30;99401.63;;;27.30;33.12
7966;BME280;4028;43.272;26.932;2023-09-30T08:31:05;99407.22;;;27.23;33.44
7966;BME280;4028;43.272;26.932;2023-09-30T08:33:33;99402.19;;;27.32;33.39
7966;BME280;4028;43.272;26.932;2023-09-30T08:36:02;99410.94;;;27.05;33.80
7966;BME280;4028;43.272;26.932;2023-09-30T08:38:33;99401.63;;;27.01;34.25
7966;BME280;4028;43.272;26.932;2023-09-30T08:40:59;99403.72;;;27.11;33.15
7966;BME280;4028;43.272;26.932;2023-09-30T08:43:25;99393.34;;;27.58;32.91
7966;BME280;4028;43.272;26.932;2023-09-30T08:45:56;99409.50;;;27.65;32.31
7966;BME280;4028;43.272;26.932;2023-09-30T08:48:23;99398.16;;;27.51;32.35
7966;BME280;4028;43.272;26.932;2023-09-30T08:50:51;99397.97;;;27.58;31.87
7966;BME280;4028;43.272;26.932;2023-09-30T08:53:17;99399.75;;;27.69;31.80
7966;BME280;4028;43.272;26.932;2023-09-30T08:55:44;99386.63;;;27.27;31.37
7966;BME280;4028;43.272;26.932;2023-09-30T08:58:12;99397.75;;;27.09;33.00
7966;BME280;4028;43.272;26.932;2023-09-30T09:00:38;99347.88;;;27.54;32.23
7966;BME280;4028;43.272;26.932;2023-09-30T09:03:06;99394.44;;;28.57;31.03
7966;BME280;4028;43.272;26.932;2023-09-30T09:05:32;99386.19;;;29.33;29.91
7966;BME280;4028;43.272;26.932;2023-09-30T09:07:57;99386.84;;;29.87;29.31
7966;BME280;4028;43.272;26.932;2023-09-30T09:10:23;99391.78;;;30.48;28.73
7966;BME280;4028;43.272;26.932;2023-09-30T09:12:58;99378.53;;;31.08;28.11
7966;BME280;4028;43.272;26.932;2023-09-30T09:15:26;99382.31;;;31.78;27.83
7966;BME280;4028;43.272;26.932;2023-09-30T09:17:52;99385.31;;;31.76;26.73
7966;BME280;4028;43.272;26.932;2023-09-30T09:20:20;99393.00;;;31.69;26.52
7966;BME280;4028;43.272;26.932;2023-09-30T09:22:50;99387.28;;;31.50;26.35
7966;BME280;4028;43.272;26.932;2023-09-30T09:25:21;99386.34;;;32.16;26.20
7966;BME280;4028;43.272;26.932;2023-09-30T09:27:52;99384.34;;;32.37;26.44
7966;BME280;4028;43.272;26.932;2023-09-30T09:30:25;99369.50;;;31.53;25.41
7966;BME280;4028;43.272;26.932;2023-09-30T09:33:02;99370.44;;;30.40;27.23
7966;BME280;4028;43.272;26.932;2023-09-30T09:35:29;99372.78;;;30.06;28.00
7966;BME280;4028;43.272;26.932;2023-09-30T09:38:05;99370.72;;;30.33;27.89
7966;BME280;4028;43.272;26.932;2023-09-30T09:40:33;99363.25;;;31.32;27.35
7966;BME280;4028;43.272;26.932;2023-09-30T09:42:59;99358.28;;;31.70;25.91
7966;BME280;4028;43.272;26.932;2023-09-30T09:45:28;99340.84;;;31.35;26.46
7966;BME280;4028;43.272;26.932;2023-09-30T09:47:54;99360.78;;;31.41;26.90
7966;BME280;4028;43.272;26.932;2023-09-30T09:50:21;99362.03;;;32.04;25.91
7966;BME280;4028;43.272;26.932;2023-09-30T09:52:51;99368.13;;;32.51;25.67
7966;BME280;4028;43.272;26.932;2023-09-30T09:55:22;99355.28;;;32.85;25.91
7966;BME280;4028;43.272;26.932;2023-09-30T09:57:48;99346.31;;;32.30;25.24
7966;BME280;4028;43.272;26.932;2023-09-30T10:00:18;99334.97;;;31.88;25.56
7966;BME280;4028;43.272;26.932;2023-09-30T10:02:46;99357.25;;;32.36;26.04
7966;BME280;4028;43.272;26.932;2023-09-30T10:05:12;99353.34;;;32.52;25.52
7966;BME280;4028;43.272;26.932;2023-09-30T10:07:42;99355.56;;;32.40;25.09
7966;BME280;4028;43.272;26.932;2023-09-30T10:10:13;99365.75;;;32.24;24.66
7966;BME280;4028;43.272;26.932;2023-09-30T10:12:40;99359.31;;;31.99;25.12
7966;BME280;4028;43.272;26.932;2023-09-30T10:18:00;99345.75;;;32.28;25.46
7966;BME280;4028;43.272;26.932;2023-09-30T10:20:30;99340.72;;;31.91;25.27
7966;BME280;4028;43.272;26.932;2023-09-30T10:25:44;99333.41;;;32.41;24.91
7966;BME280;4028;43.272;26.932;2023-09-30T10:28:37;99335.59;;;31.64;25.13
7966;BME280;4028;43.272;26.932;2023-09-30T10:31:20;99347.22;;;32.11;25.57
7966;BME280;4028;43.272;26.932;2023-09-30T10:36:37;99340.53;;;32.37;24.69
7966;BME280;4028;43.272;26.932;2023-09-30T10:39:04;99327.09;;;31.81;24.36
7966;BME280;4028;43.272;26.932;2023-09-30T10:41:55;99329.88;;;31.50;25.82
7966;BME280;4028;43.272;26.932;2023-09-30T10:47:35;99324.94;;;31.22;26.47
7966;BME280;4028;43.272;26.932;2023-09-30T10:50:00;99302.25;;;31.42;25.84
7966;BME280;4028;43.272;26.932;2023-09-30T10:52:26;99315.28;;;31.91;25.63
7966;BME280;4028;43.272;26.932;2023-09-30T10:54:51;99326.72;;;32.03;25.09
7966;BME280;4028;43.272;26.932;2023-09-30T10:57:27;99323.19;;;31.97;25.05
7966;BME280;4028;43.272;26.932;2023-09-30T11:00:08;99306.78;;;31.92;25.06
7966;BME280;4028;43.272;26.932;2023-09-30T11:02:34;99302.19;;;32.42;25.07
7966;BME280;4028;43.272;26.932;2023-09-30T11:05:10;99317.25;;;32.40;24.66
7966;BME280;4028;43.272;26.932;2023-09-30T11:07:37;99291.47;;;31.91;24.27
7966;BME280;4028;43.272;26.932;2023-09-30T11:10:04;99305.16;;;31.91;24.82
7966;BME280;4028;43.272;26.932;2023-09-30T11:12:31;99299.28;;;32.13;25.15
7966;BME280;4028;43.272;26.932;2023-09-30T11:15:03;99296.38;;;31.99;25.10
7966;BME280;4028;43.272;26.932;2023-09-30T11:17:28;99303.31;;;31.61;24.72
7966;BME280;4028;43.272;26.932;2023-09-30T11:19:54;99292.94;;;31.48;25.04
7966;BME280;4028;43.272;26.932;2023-09-30T11:22:20;99297.59;;;31.52;25.65
7966;BME280;4028;43.272;26.932;2023-09-30T11:24:46;99286.66;;;31.47;25.35
7966;BME280;4028;43.272;26.932;2023-09-30T11:27:12;99300.94;;;30.98;25.81
7966;BME280;4028;43.272;26.932;2023-09-30T11:29:49;99294.09;;;30.75;25.72
7966;BME280;4028;43.272;26.932;2023-09-30T11:32:27;99275.78;;;30.91;25.95
7966;BME280;4028;43.272;26.932;2023-09-30T11:34:54;99285.84;;;31.42;26.05
7966;BME280;4028;43.272;26.932;2023-09-30T11:37:20;99285.59;;;31.48;25.46
7966;BME280;4028;43.272;26.932;2023-09-30T11:39:46;99278.78;;;31.36;25.54
7966;BME280;4028;43.272;26.932;2023-09-30T11:42:16;99274.97;;;31.06;25.53
7966;BME280;4028;43.272;26.932;2023-09-30T11:44:48;99275.25;;;30.89;25.77
7966;BME280;4028;43.272;26.932;2023-09-30T11:47:14;99268.41;;;30.56;26.28
7966;BME280;4028;43.272;26.932;2023-09-30T11:49:42;99266.88;;;30.02;26.54
7966;BME280;4028;43.272;26.932;2023-09-30T11:52:13;99273.94;;;29.93;26.44
7966;BME280;4028;43.272;26.932;2023-09-30T11:54:45;99271.94;;;30.51;26.39
7966;BME280;4028;43.272;26.932;2023-09-30T11:57:17;99279.09;;;30.83;26.52
7966;BME280;4028;43.272;26.932;2023-09-30T11:59:44;99217.53;;;30.09;25.99
7966;BME280;4028;43.272;26.932;2023-09-30T12:02:11;99258.25;;;30.21;26.02
7966;BME280;4028;43.272;26.932;2023-09-30T12:04:38;99248.19;;;30.52;26.05
7966;BME280;4028;43.272;26.932;2023-09-30T12:07:04;99248.72;;;31.05;25.86
7966;BME280;4028;43.272;26.932;2023-09-30T12:09:32;99232.63;;;30.63;25.25
7966;BME280;4028;43.272;26.932;2023-09-30T12:11:57;99248.41;;;30.30;25.64
7966;BME280;4028;43.272;26.932;2023-09-30T12:14:24;99262.09;;;30.45;25.53
7966;BME280;4028;43.272;26.932;2023-09-30T12:16:50;99229.81;;;30.07;25.37
7966;BME280;4028;43.272;26.932;2023-09-30T12:19:18;99235.34;;;30.32;25.92
7966;BME280;4028;43.272;26.932;2023-09-30T12:21:45;99242.72;;;30.37;25.73
7966;BME280;4028;43.272;26.932;2023-09-30T12:24:16;99233.69;;;30.16;25.73
7966;BME280;4028;43.272;26.932;2023-09-30T12:26:49;99234.78;;;30.30;25.60
7966;BME280;4028;43.272;26.932;2023-09-30T12:29:16;99238.16;;;29.69;26.39
7966;BME280;4028;43.272;26.932;2023-09-30T12:31:42;99231.34;;;29.77;26.17
7966;BME280;4028;43.272;26.932;2023-09-30T12:34:08;99159.31;;;29.63;25.95
7966;BME280;4028;43.272;26.932;2023-09-30T12:36:34;99236.44;;;30.26;26.24
7966;BME280;4028;43.272;26.932;2023-09-30T12:38:59;99230.28;;;29.88;26.32
7966;BME280;4028;43.272;26.932;2023-09-30T12:41:25;99219.78;;;30.22;26.04
7966;BME280;4028;43.272;26.932;2023-09-30T12:43:50;99212.06;;;30.04;25.90
7966;BME280;4028;43.272;26.932;2023-09-30T12:46:16;99214.59;;;30.21;26.12
7966;BME280;4028;43.272;26.932;2023-09-30T12:48:43;99222.78;;;30.21;26.33
7966;BME280;4028;43.272;26.932;2023-09-30T12:51:09;99211.03;;;30.20;25.94
7966;BME280;4028;43.272;26.932;2023-09-30T12:53:35;99199.44;;;29.72;25.51
7966;BME280;4028;43.272;26.932;2023-09-30T12:56:00;99211.19;;;29.88;26.22
7966;BME280;4028;43.272;26.932;2023-09-30T12:58:26;99207.69;;;29.30;25.85
7966;BME280;4028;43.272;26.932;2023-09-30T13:00:56;99211.13;;;29.15;26.74
7966;BME280;4028;43.272;26.932;2023-09-30T13:03:22;99211.31;;;28.98;26.70
7966;BME280;4028;43.272;26.932;2023-09-30T13:05:48;99213.56;;;28.74;27.14
7966;BME280;4028;43.272;26.932;2023-09-30T13:08:14;99205.78;;;28.51;27.51
7966;BME280;4028;43.272;26.932;2023-09-30T13:10:40;99181.31;;;28.29;27.32
7966;BME280;4028;43.272;26.932;2023-09-30T13:13:05;99188.16;;;28.32;27.52
7966;BME280;4028;43.272;26.932;2023-09-30T13:15:32;99183.91;;;28.41;27.35
7966;BME280;4028;43.272;26.932;2023-09-30T13:17:58;99193.06;;;28.62;27.00
7966;BME280;4028;43.272;26.932;2023-09-30T13:20:24;99192.09;;;28.78;27.02
7966;BME280;4028;43.272;26.932;2023-09-30T13:22:50;99183.25;;;28.98;26.93